LiveATC.Net - Listen to live air traffic control over the Internet!


ICAO: PALH  IATA: LHD   Airport: Lake Hood Seaplane Base
City: Anchorage   State/Province: Alaska
Country: United States   Continent: North America
PALH METAR Weather: PALH 230253Z 05005KT 10SM OVC085 11/06 A2930 RMK AO2 SLP922 60000 T01110061 58008
PALH Flight Activity (FlightAware)
PALH Webcam:  (Airport Webcams) 
PALH Airport Info   (iFlightPlanner)
PALH VFR Sectional Chart   (iFlightPlanner) 
PALH IFR Low Chart   (iFlightPlanner) 

PALH Tower
Feed Status: DOWN
Last heard on: 2020-09-22 22:26:06 (0 days 5 hours 3 minutes ago)
Archive Access: PALH Tower
FacilityFrequency
Lake Hood Tower126.800
Feed sponsored by: SkyTrek Alaska Flight Training

NOTICE

Unauthorized use prohibited. See LiveATC.net Terms of Service


Airport/ARTCC Code
Frequency Search
(e.g., 124.400, 128.75)
Site-wide search
 


Browse Feeds
Top 50 Feeds
Coverage Map
Bad Weather Areas

LiveATC FAQ
Offer LiveATC feed
Contact LiveATC.net
Press Inquiries

LiveATC on iPhone
LiveATC on Android

Windows Phone
Windows 8/10

LiveATC Mobile
(Mobile browser)

ATC Audio Archives
Interesting Recordings

LiveATC Forums


Home Page
About LiveATC.net
Make a Donation
Terms of Use
Privacy Policy

Canadian Air Freqs

AIRMETs/SIGMETs

FAA Airport Status
Nat'l Airspace Status
Arrival Demand Charts


Server Software By:
Icecast.org
Liquidsoap